Time;durP1;ratioP1;P1;durP2;ratioP2;P2;SDS_P1;SDS_P2;PMS_P1;PMS_P2;Temp;Humidity;BMP_temperature;BMP_pressure;BME280_temperature;BME280_humidity;BME280_pressure;Samples;Min_cycle;Max_cycle;Signal;HPM_P1;HPM_P2
2022/01/04 00:00:17;;;;;;;10.50;2.60;;;19.90;58.60;;;;;;4428926;32;20208;-76
2022/01/04 00:02:43;;;;;;;12.38;2.58;;;19.80;58.50;;;;;;4428688;32;20203;-76
2022/01/04 00:05:10;;;;;;;9.98;3.00;;;19.80;58.60;;;;;;4430730;32;20114;-77
2022/01/04 00:07:40;;;;;;;11.98;2.70;;;19.80;58.50;;;;;;4430932;32;20568;-76
2022/01/04 00:10:08;;;;;;;8.50;2.45;;;19.80;58.60;;;;;;4428994;32;20074;-76
2022/01/04 00:15:19;;;;;;;8.65;2.70;;;19.80;58.50;;;;;;4428808;32;20591;-76
2022/01/04 00:17:45;;;;;;;8.98;2.42;;;19.70;58.50;;;;;;4427302;32;20070;-76
2022/01/04 00:20:11;;;;;;;8.95;2.47;;;19.70;58.40;;;;;;4428681;32;20059;-76
2022/01/04 00:22:37;;;;;;;9.55;2.40;;;19.70;58.50;;;;;;4428586;32;20059;-76
2022/01/04 00:25:04;;;;;;;8.60;2.22;;;19.70;58.40;;;;;;4441256;32;20101;-76
2022/01/04 00:27:30;;;;;;;10.07;2.28;;;19.70;58.50;;;;;;4428312;32;20090;-76
2022/01/04 00:29:56;;;;;;;9.77;2.72;;;19.70;58.40;;;;;;4440394;32;20701;-77
2022/01/04 00:32:22;;;;;;;13.00;3.45;;;19.70;58.40;;;;;;4427565;32;20093;-76
2022/01/04 00:34:48;;;;;;;11.68;2.88;;;19.60;58.40;;;;;;4428223;32;20516;-76
2022/01/04 00:37:14;;;;;;;7.53;2.08;;;19.70;58.40;;;;;;4428544;32;20082;-76
2022/01/04 00:39:40;;;;;;;10.40;2.05;;;19.60;58.30;;;;;;4431859;32;20085;-76
2022/01/04 00:42:06;;;;;;;7.82;1.85;;;19.60;58.30;;;;;;4439941;32;20501;-77
2022/01/04 00:44:32;;;;;;;9.82;2.28;;;19.60;58.30;;;;;;4427559;32;20549;-77
2022/01/04 00:46:59;;;;;;;7.63;1.95;;;19.60;58.30;;;;;;4439614;32;20090;-76
2022/01/04 00:49:25;;;;;;;9.13;1.80;;;19.60;58.30;;;;;;4427884;32;20117;-76
2022/01/04 00:51:52;;;;;;;9.50;1.92;;;19.60;58.30;;;;;;4439825;32;20513;-76
2022/01/04 00:54:20;;;;;;;9.65;2.03;;;19.60;58.30;;;;;;4427691;32;20092;-76
2022/01/04 00:56:46;;;;;;;7.38;1.90;;;19.60;58.30;;;;;;4428672;32;20160;-76
2022/01/04 00:59:13;;;;;;;6.82;1.77;;;19.50;59.10;;;;;;4428564;32;20093;-77
2022/01/04 01:01:39;;;;;;;8.60;2.20;;;19.50;58.20;;;;;;4428554;32;20276;-77
2022/01/04 01:04:07;;;;;;;6.50;2.05;;;19.50;58.20;;;;;;4428746;32;20122;-77
2022/01/04 01:06:33;;;;;;;10.07;2.20;;;19.50;58.20;;;;;;4428230;32;20066;-76
2022/01/04 01:09:00;;;;;;;8.27;2.15;;;19.50;58.20;;;;;;4428806;32;20118;-76
2022/01/04 01:11:26;;;;;;;6.93;1.90;;;19.50;58.20;;;;;;4428308;32;20136;-76
2022/01/04 01:13:53;;;;;;;10.30;1.88;;;19.50;58.20;;;;;;4438517;32;20074;-77
2022/01/04 01:16:19;;;;;;;5.85;1.70;;;19.50;58.10;;;;;;4427617;32;20113;-76
2022/01/04 01:18:45;;;;;;;7.63;1.73;;;19.50;58.20;;;;;;4427111;32;20180;-77
2022/01/04 01:21:12;;;;;;;7.60;1.60;;;19.40;58.10;;;;;;4426358;32;20256;-78
2022/01/04 01:23:39;;;;;;;6.90;1.80;;;19.40;58.10;;;;;;4427298;32;20493;-76
2022/01/04 01:26:07;;;;;;;6.30;1.85;;;19.40;58.10;;;;;;4439280;32;20125;-77
2022/01/04 01:28:34;;;;;;;7.80;1.85;;;19.40;58.10;;;;;;4427150;32;20200;-79
2022/01/04 01:31:00;;;;;;;7.63;1.92;;;19.40;58.20;;;;;;4427370;32;20344;-77
2022/01/04 01:33:27;;;;;;;8.07;2.10;;;19.40;58.20;;;;;;4427713;32;20074;-76
2022/01/04 01:35:54;;;;;;;6.22;1.95;;;19.40;58.30;;;;;;4427234;32;20367;-76
2022/01/04 01:38:20;;;;;;;7.57;1.90;;;19.40;58.30;;;;;;4429817;32;20660;-76
2022/01/04 01:40:48;;;;;;;6.10;1.90;;;19.40;58.30;;;;;;4439969;32;20129;-76
2022/01/04 01:43:15;;;;;;;6.43;1.88;;;19.40;58.30;;;;;;4440333;32;20874;-76
2022/01/04 01:45:42;;;;;;;6.95;1.98;;;19.30;58.30;;;;;;4428128;32;20136;-76
2022/01/04 01:48:09;;;;;;;6.45;1.65;;;19.30;58.30;;;;;;4427885;32;20082;-76
2022/01/04 01:50:36;;;;;;;5.95;1.73;;;19.30;58.30;;;;;;4429291;32;20145;-79
2022/01/04 01:53:03;;;;;;;8.32;1.98;;;19.30;58.30;;;;;;4427202;32;20200;-76
2022/01/04 01:55:29;;;;;;;5.07;1.50;;;19.30;58.30;;;;;;4427307;32;20067;-77
2022/01/04 01:57:55;;;;;;;6.28;1.90;;;19.30;58.30;;;;;;4426868;32;20149;-76
2022/01/04 02:00:25;;;;;;;8.65;1.70;;;19.30;58.30;;;;;;4427800;32;20508;-77
2022/01/04 02:02:51;;;;;;;5.20;1.38;;;19.30;58.40;;;;;;4427467;32;20212;-77
2022/01/04 02:05:17;;;;;;;8.00;1.88;;;19.20;58.30;;;;;;4427719;32;20071;-76
2022/01/04 02:07:44;;;;;;;6.40;1.73;;;19.20;58.40;;;;;;4429665;32;20215;-77
2022/01/04 02:10:10;;;;;;;6.90;1.90;;;19.20;58.40;;;;;;4436418;32;20624;-76
2022/01/04 02:12:47;;;;;;;6.82;1.35;;;19.20;58.40;;;;;;4429442;32;20157;-79
2022/01/04 02:15:16;;;;;;;4.78;1.63;;;19.20;58.50;;;;;;4430781;32;20083;-77
2022/01/04 02:17:42;;;;;;;5.65;1.60;;;19.20;58.50;;;;;;4427812;32;20070;-76
2022/01/04 02:20:09;;;;;;;5.60;1.80;;;19.20;58.50;;;;;;4427595;32;20417;-76
2022/01/04 02:22:35;;;;;;;4.97;1.38;;;19.20;58.50;;;;;;4444716;32;20086;-78
2022/01/04 02:25:01;;;;;;;5.88;1.75;;;19.20;58.60;;;;;;4445094;32;20408;-77
2022/01/04 02:27:27;;;;;;;3.83;1.40;;;19.20;58.60;;;;;;4445545;32;20224;-76
2022/01/04 02:29:53;;;;;;;4.70;1.33;;;19.20;58.60;;;;;;4447358;32;20176;-76
2022/01/04 02:32:19;;;;;;;7.63;1.67;;;19.10;58.50;;;;;;4442555;32;20118;-77
2022/01/04 02:34:50;;;;;;;4.38;1.63;;;19.10;58.50;;;;;;4444110;32;20081;-77
2022/01/04 02:37:21;;;;;;;6.05;1.80;;;19.10;58.60;;;;;;4445304;32;20132;-77
2022/01/04 02:39:47;;;;;;;5.72;1.77;;;19.10;58.70;;;;;;4445060;32;20164;-77
2022/01/04 02:42:13;;;;;;;5.53;1.50;;;19.10;58.60;;;;;;4433479;32;20079;-77
2022/01/04 02:44:39;;;;;;;5.32;1.63;;;19.10;58.60;;;;;;4441890;32;20078;-79
2022/01/04 02:47:05;;;;;;;5.63;1.52;;;19.10;58.60;;;;;;4441627;32;20086;-77
2022/01/04 02:49:32;;;;;;;5.00;1.50;;;19.10;58.60;;;;;;4430239;32;20093;-76
2022/01/04 02:51:57;;;;;;;4.00;1.23;;;19.10;58.60;;;;;;4429892;32;20063;-77
2022/01/04 02:54:23;;;;;;;5.07;1.52;;;19.10;58.60;;;;;;4430425;32;20083;-76
2022/01/04 02:56:49;;;;;;;6.65;1.70;;;19.10;58.60;;;;;;4430446;32;20276;-77
2022/01/04 02:59:15;;;;;;;3.92;1.23;;;19.00;58.60;;;;;;4430670;32;20066;-77
2022/01/04 03:01:41;;;;;;;5.45;1.40;;;19.00;58.60;;;;;;4430616;32;20491;-77
2022/01/04 03:04:08;;;;;;;4.60;1.55;;;19.00;58.50;;;;;;4430352;32;20425;-77
2022/01/04 03:06:34;;;;;;;4.28;1.52;;;19.00;58.60;;;;;;4430492;32;20117;-77
2022/01/04 03:09:01;;;;;;;6.72;1.70;;;19.00;58.60;;;;;;4442006;32;20535;-77
2022/01/04 03:11:27;;;;;;;7.47;1.58;;;19.00;58.60;;;;;;4430639;32;20093;-77
2022/01/04 03:13:52;;;;;;;4.20;1.52;;;19.00;58.60;;;;;;4429613;32;20066;-77
2022/01/04 03:16:18;;;;;;;5.65;1.48;;;19.00;58.60;;;;;;4430389;32;20091;-77
2022/01/04 03:21:30;;;;;;;5.15;1.25;;;19.00;58.70;;;;;;4430732;32;20074;-76
2022/01/04 03:23:56;;;;;;;4.93;1.55;;;18.90;58.60;;;;;;4430048;32;20074;-77
2022/01/04 03:26:22;;;;;;;4.45;1.80;;;18.90;58.60;;;;;;4430354;32;20087;-76
2022/01/04 03:28:48;;;;;;;4.30;1.23;;;18.90;58.60;;;;;;4429856;32;20071;-77
2022/01/04 03:31:14;;;;;;;4.38;1.48;;;18.90;59.60;;;;;;4430156;32;20070;-77
2022/01/04 03:33:40;;;;;;;3.63;1.33;;;18.90;58.60;;;;;;4440963;32;20140;-77
2022/01/04 03:36:06;;;;;;;4.15;1.23;;;18.90;58.60;;;;;;4441371;32;20628;-77
2022/01/04 03:38:32;;;;;;;3.85;1.40;;;18.90;58.60;;;;;;4441541;32;20089;-76
2022/01/04 03:40:58;;;;;;;3.90;1.35;;;19.00;59.70;;;;;;4441168;32;20600;-77
2022/01/04 03:43:25;;;;;;;4.53;1.67;;;18.90;58.60;;;;;;4429762;32;20083;-77
2022/01/04 03:45:51;;;;;;;7.32;1.70;;;18.90;58.60;;;;;;4441314;32;20121;-77
2022/01/04 03:48:18;;;;;;;3.92;1.48;;;18.90;58.60;;;;;;4429604;32;20628;-77
2022/01/04 03:50:45;;;;;;;5.20;1.30;;;18.90;58.70;;;;;;4429895;32;20125;-77
2022/01/04 03:53:10;;;;;;;6.15;1.83;;;18.90;58.70;;;;;;4429336;32;20920;-77
2022/01/04 03:55:36;;;;;;;4.43;1.45;;;18.90;58.70;;;;;;4441325;32;20484;-76
2022/01/04 03:58:02;;;;;;;4.57;1.40;;;18.90;58.70;;;;;;4429518;32;20077;-77
2022/01/04 04:00:28;;;;;;;5.18;1.60;;;18.90;58.70;;;;;;4441555;32;20494;-77
2022/01/04 04:02:54;;;;;;;7.55;1.70;;;18.90;58.70;;;;;;4428967;32;20082;-78
2022/01/04 04:05:20;;;;;;;5.63;1.77;;;18.90;58.70;;;;;;4453909;32;20153;-77
2022/01/04 04:07:46;;;;;;;5.00;1.70;;;18.90;59.70;;;;;;4429618;32;20498;-77
2022/01/04 04:10:11;;;;;;;4.80;1.30;;;18.80;58.70;;;;;;4429281;32;20102;-77
2022/01/04 04:12:37;;;;;;;6.10;1.80;;;18.80;58.70;;;;;;4441063;32;20078;-77
2022/01/04 04:15:08;;;;;;;3.45;1.40;;;18.80;59.70;;;;;;4428234;32;20261;-77
2022/01/04 04:17:35;;;;;;;4.55;1.20;;;18.80;58.70;;;;;;4429485;32;20655;-77
2022/01/04 04:20:03;;;;;;;5.60;1.45;;;18.80;58.80;;;;;;4429135;32;20094;-77
2022/01/04 04:22:29;;;;;;;4.43;1.70;;;18.80;58.80;;;;;;4429482;32;20184;-76
2022/01/04 04:24:55;;;;;;;5.10;1.33;;;18.80;58.80;;;;;;4429094;32;20299;-79
2022/01/04 04:27:21;;;;;;;2.83;1.20;;;18.80;58.80;;;;;;4429335;32;20508;-76
2022/01/04 04:29:46;;;;;;;4.47;1.35;;;18.70;58.80;;;;;;4429010;32;20091;-76
2022/01/04 04:32:12;;;;;;;4.93;1.38;;;18.70;58.70;;;;;;4428795;32;20156;-77
2022/01/04 04:34:39;;;;;;;4.82;1.35;;;18.70;58.80;;;;;;4440770;32;20094;-77
2022/01/04 04:37:05;;;;;;;6.43;1.58;;;18.70;58.80;;;;;;4428844;32;20066;-77
2022/01/04 04:39:31;;;;;;;6.80;1.40;;;18.70;58.80;;;;;;4428997;32;20221;-77
2022/01/04 04:41:57;;;;;;;3.40;1.08;;;18.70;58.80;;;;;;4427680;32;20489;-79
2022/01/04 04:44:23;;;;;;;4.43;1.60;;;18.70;58.80;;;;;;4429075;32;20077;-77
2022/01/04 04:46:49;;;;;;;3.42;1.20;;;18.70;58.80;;;;;;4428926;32;20082;-77
2022/01/04 04:49:15;;;;;;;4.60;1.50;;;18.70;58.80;;;;;;4428622;32;20101;-77
2022/01/04 04:51:42;;;;;;;3.00;1.15;;;18.70;58.90;;;;;;4429271;32;20090;-76
2022/01/04 04:54:08;;;;;;;3.70;1.27;;;18.70;58.90;;;;;;4428766;32;20082;-77
2022/01/04 04:56:38;;;;;;;5.25;1.30;;;18.70;58.90;;;;;;4429075;32;20102;-77
2022/01/04 04:59:10;;;;;;;4.93;1.40;;;18.70;58.90;;;;;;4428322;32;20136;-77
2022/01/04 05:01:37;;;;;;;5.32;1.60;;;18.60;58.80;;;;;;4428990;32;20169;-77
2022/01/04 05:04:03;;;;;;;3.75;1.30;;;18.60;58.90;;;;;;4428376;32;20070;-77
2022/01/04 05:06:29;;;;;;;6.25;1.40;;;18.70;58.90;;;;;;4428559;32;20126;-76
2022/01/04 05:08:55;;;;;;;4.22;1.45;;;18.60;58.80;;;;;;4440743;32;20204;-77
2022/01/04 05:11:22;;;;;;;3.28;1.13;;;18.60;58.90;;;;;;4440217;32;20635;-77
2022/01/04 05:13:48;;;;;;;4.70;1.40;;;18.60;58.90;;;;;;4428607;32;20090;-77
2022/01/04 05:16:14;;;;;;;3.20;1.17;;;18.60;58.90;;;;;;4453217;32;20071;-77
2022/01/04 05:18:39;;;;;;;6.45;1.70;;;18.60;58.90;;;;;;4440519;32;20082;-77
2022/01/04 05:21:05;;;;;;;6.13;1.35;;;18.60;58.90;;;;;;4440117;32;20085;-77
2022/01/04 05:23:31;;;;;;;4.35;1.20;;;18.60;58.90;;;;;;4440228;32;20086;-77
2022/01/04 05:25:57;;;;;;;3.97;1.42;;;18.60;58.90;;;;;;4428671;32;20100;-76
2022/01/04 05:28:23;;;;;;;6.55;1.45;;;18.60;58.90;;;;;;4440026;32;20083;-76
2022/01/04 05:30:49;;;;;;;3.60;1.33;;;18.60;58.90;;;;;;4453380;32;20071;-77
2022/01/04 05:33:15;;;;;;;4.88;1.55;;;18.60;58.90;;;;;;4428301;32;20164;-77
2022/01/04 05:35:41;;;;;;;3.55;1.20;;;18.60;58.90;;;;;;4453171;32;20094;-76
2022/01/04 05:38:07;;;;;;;3.40;1.33;;;18.50;58.90;;;;;;4428330;32;20085;-77
2022/01/04 05:40:34;;;;;;;5.38;1.60;;;18.60;58.90;;;;;;4440361;32;20476;-77
2022/01/04 05:43:00;;;;;;;4.93;1.60;;;18.50;58.90;;;;;;4428581;32;20335;-77
2022/01/04 05:45:26;;;;;;;5.28;1.58;;;18.50;58.90;;;;;;4452685;32;20099;-77
2022/01/04 05:47:52;;;;;;;5.50;1.42;;;18.50;58.90;;;;;;4440063;32;20512;-77
2022/01/04 05:50:18;;;;;;;5.20;1.45;;;18.50;58.90;;;;;;4428302;32;20086;-77
2022/01/04 05:52:45;;;;;;;4.35;1.17;;;18.50;59.80;;;;;;4428535;32;20094;-77
2022/01/04 05:55:11;;;;;;;6.50;1.50;;;18.50;58.90;;;;;;4428179;32;20109;-77
2022/01/04 05:57:37;;;;;;;4.28;1.48;;;18.50;59.00;;;;;;4454189;32;20170;-77
2022/01/04 06:00:05;;;;;;;5.18;1.55;;;18.50;59.00;;;;;;4431671;32;20160;-77
2022/01/04 06:02:30;;;;;;;3.28;1.40;;;18.50;59.00;;;;;;4443004;32;20524;-77
2022/01/04 06:04:56;;;;;;;5.28;1.52;;;18.50;58.90;;;;;;4442839;32;20062;-77
2022/01/04 06:07:22;;;;;;;3.97;1.40;;;18.50;59.00;;;;;;4455666;32;20129;-77
2022/01/04 06:09:51;;;;;;;5.38;1.80;;;18.50;58.90;;;;;;4431450;32;20090;-77
2022/01/04 06:15:01;;;;;;;5.30;1.52;;;18.40;58.90;;;;;;4430964;32;20082;-77
2022/01/04 06:17:31;;;;;;;4.07;1.73;;;18.40;58.90;;;;;;4455320;32;20800;-77
2022/01/04 06:19:59;;;;;;;4.70;1.35;;;18.40;58.90;;;;;;4431415;32;20536;-77
2022/01/04 06:22:27;;;;;;;5.68;1.60;;;18.40;58.90;;;;;;4430797;32;20529;-77
2022/01/04 06:24:54;;;;;;;5.95;1.50;;;18.40;58.90;;;;;;4431026;32;20510;-77
2022/01/04 06:27:20;;;;;;;3.45;1.30;;;18.40;58.90;;;;;;4455262;32;20157;-76
2022/01/04 06:29:46;;;;;;;6.03;1.50;;;18.40;59.00;;;;;;4455610;32;20140;-77
2022/01/04 06:32:12;;;;;;;7.47;1.63;;;18.40;58.90;;;;;;4430827;32;20152;-79
2022/01/04 06:34:39;;;;;;;3.80;1.48;;;18.40;59.00;;;;;;4430784;32;20078;-77
2022/01/04 06:37:06;;;;;;;5.05;1.65;;;18.40;59.00;;;;;;4430876;32;20078;-78
2022/01/04 06:39:32;;;;;;;6.47;1.70;;;18.40;59.00;;;;;;4430556;32;20149;-77
2022/01/04 06:41:58;;;;;;;4.47;1.27;;;18.40;59.00;;;;;;4440380;32;20078;-77
2022/01/04 06:44:24;;;;;;;3.30;1.40;;;18.40;59.00;;;;;;4430540;32;20145;-77
2022/01/04 06:46:50;;;;;;;5.25;1.50;;;18.40;59.00;;;;;;4442701;32;20424;-77
2022/01/04 06:49:17;;;;;;;6.10;2.13;;;18.40;59.00;;;;;;4454807;32;20153;-78
2022/01/04 06:51:44;;;;;;;5.95;1.48;;;18.40;59.00;;;;;;4430729;32;20066;-77
2022/01/04 06:54:12;;;;;;;3.92;1.45;;;18.40;59.00;;;;;;4430934;32;20128;-77
2022/01/04 06:56:38;;;;;;;4.47;1.50;;;18.30;59.00;;;;;;4430303;32;20071;-77
2022/01/04 06:59:05;;;;;;;4.72;1.73;;;18.30;59.00;;;;;;4430787;32;20244;-77
2022/01/04 07:01:32;;;;;;;3.95;1.15;;;18.30;59.00;;;;;;4430256;32;20078;-78
2022/01/04 07:04:03;;;;;;;6.50;1.67;;;18.30;59.00;;;;;;4430599;32;20545;-77
2022/01/04 07:06:30;;;;;;;4.72;1.30;;;18.30;59.00;;;;;;4454844;32;20083;-78
2022/01/04 07:08:57;;;;;;;3.88;1.30;;;18.30;59.00;;;;;;4454957;32;20382;-78
2022/01/04 07:11:23;;;;;;;5.13;1.38;;;18.30;59.00;;;;;;4454822;32;20090;-77
2022/01/04 07:13:49;;;;;;;5.00;1.50;;;18.30;59.00;;;;;;4454706;32;20086;-77
2022/01/04 07:16:15;;;;;;;4.18;1.40;;;18.30;59.00;;;;;;4430530;32;20078;-78
2022/01/04 07:18:46;;;;;;;3.40;1.25;;;18.30;59.00;;;;;;4429762;32;20138;-78
2022/01/04 07:21:13;;;;;;;3.58;1.33;;;18.30;59.00;;;;;;4444452;32;20074;-77
2022/01/04 07:23:39;;;;;;;3.33;1.20;;;18.30;59.00;;;;;;4444654;32;20090;-77
2022/01/04 07:26:05;;;;;;;4.60;1.60;;;18.30;59.00;;;;;;4444803;32;20084;-77
2022/01/04 07:28:33;;;;;;;3.15;1.00;;;18.30;59.00;;;;;;4443519;32;20074;-77
2022/01/04 07:31:00;;;;;;;4.60;1.42;;;18.30;59.00;;;;;;4441767;32;20069;-78
2022/01/04 07:33:26;;;;;;;5.10;1.40;;;18.30;59.90;;;;;;4443930;32;20100;-77
2022/01/04 07:35:52;;;;;;;3.97;1.45;;;18.30;59.10;;;;;;4445581;32;20082;-78
2022/01/04 07:38:18;;;;;;;4.00;1.30;;;18.20;59.10;;;;;;4444463;32;20078;-78
2022/01/04 07:40:43;;;;;;;4.95;1.67;;;18.20;59.00;;;;;;4444709;32;20085;-79
2022/01/04 07:43:12;;;;;;;4.25;1.58;;;18.20;59.10;;;;;;4443570;32;20155;-78
2022/01/04 07:45:38;;;;;;;5.57;1.17;;;18.20;59.00;;;;;;4444217;32;20220;-78
2022/01/04 07:48:06;;;;;;;4.22;1.40;;;18.20;59.10;;;;;;4442600;32;20400;-78
2022/01/04 07:50:32;;;;;;;6.18;1.65;;;18.20;59.10;;;;;;4445169;32;20145;-78
2022/01/04 07:52:58;;;;;;;5.50;1.40;;;18.20;59.00;;;;;;4445416;32;20189;-78
2022/01/04 07:55:25;;;;;;;5.35;1.42;;;18.20;58.90;;;;;;4443449;32;20775;-79
2022/01/04 07:57:50;;;;;;;7.05;1.63;;;18.20;58.50;;;;;;4444200;32;20117;-77
2022/01/04 08:00:16;;;;;;;6.78;2.05;;;18.20;58.00;;;;;;4444866;32;20482;-76
2022/01/04 08:02:43;;;;;;;4.43;1.35;;;18.20;57.60;;;;;;4443315;32;20159;-74
2022/01/04 08:05:10;;;;;;;4.03;1.45;;;18.20;57.80;;;;;;4444738;32;20199;-73
2022/01/04 08:07:38;;;;;;;7.15;1.63;;;18.10;58.00;;;;;;4437010;32;20488;-73
2022/01/04 08:10:04;;;;;;;5.55;1.42;;;18.10;58.10;;;;;;4441110;32;20097;-73
2022/01/04 08:12:30;;;;;;;7.03;1.55;;;18.20;58.20;;;;;;4439349;32;20761;-73
2022/01/04 08:14:57;;;;;;;7.28;1.52;;;18.10;58.30;;;;;;4428480;32;20092;-75
2022/01/04 08:17:22;;;;;;;4.75;1.13;;;18.20;58.50;;;;;;4442159;32;20067;-73
2022/01/04 08:19:51;;;;;;;6.07;1.30;;;18.10;58.50;;;;;;4430216;32;20078;-75
2022/01/04 08:22:17;;;;;;;6.68;1.60;;;18.10;58.40;;;;;;4428446;32;20062;-74
2022/01/04 08:24:43;;;;;;;4.03;1.33;;;18.20;58.50;;;;;;4428213;32;20078;-73
2022/01/04 08:27:09;;;;;;;4.97;1.20;;;18.20;58.50;;;;;;4428608;32;21325;-76
2022/01/04 08:29:35;;;;;;;4.25;1.23;;;18.20;58.30;;;;;;4449268;32;20564;-74
2022/01/04 08:32:01;;;;;;;6.50;1.80;;;18.30;58.30;;;;;;4443987;32;20255;-76
2022/01/04 08:34:31;;;;;;;7.32;1.50;;;18.30;58.30;;;;;;4440483;32;20126;-75
2022/01/04 08:36:56;;;;;;;2.40;0.82;;;18.30;58.10;;;;;;4442855;32;20073;-77
2022/01/04 08:39:26;;;;;;;4.13;1.38;;;18.40;58.10;;;;;;4444378;32;20074;-75
2022/01/04 08:41:55;;;;;;;4.25;1.27;;;18.50;57.80;;;;;;4440885;32;20897;-76
2022/01/04 08:44:23;;;;;;;5.32;1.35;;;18.60;57.60;;;;;;4441433;32;20669;-75
2022/01/04 08:46:52;;;;;;;4.97;1.38;;;18.70;57.30;;;;;;4441374;32;20484;-76
2022/01/04 08:49:18;;;;;;;3.83;1.45;;;18.90;57.10;;;;;;4443751;32;20489;-75
2022/01/04 08:51:45;;;;;;;5.18;1.60;;;18.90;56.80;;;;;;4443504;32;20070;-75
2022/01/04 08:54:11;;;;;;;5.25;1.25;;;19.10;56.70;;;;;;4443515;32;20122;-76
2022/01/04 08:56:38;;;;;;;5.72;1.50;;;19.20;56.40;;;;;;4443385;32;20183;-75
2022/01/04 08:59:05;;;;;;;5.35;1.35;;;19.30;56.20;;;;;;4440433;32;20496;-75
2022/01/04 09:01:32;;;;;;;3.90;1.30;;;19.40;56.00;;;;;;4441109;32;20117;-78
2022/01/04 09:03:58;;;;;;;7.00;1.50;;;19.50;55.70;;;;;;4428440;32;20097;-76
2022/01/04 09:06:25;;;;;;;3.80;1.10;;;19.60;55.50;;;;;;4428260;32;20876;-76
2022/01/04 09:08:55;;;;;;;3.47;1.10;;;19.70;55.20;;;;;;4438054;32;20207;-77
2022/01/04 09:11:21;;;;;;;2.85;1.20;;;19.80;54.90;;;;;;4443307;32;20212;-77
2022/01/04 09:13:49;;;;;;;4.10;1.05;;;19.90;54.80;;;;;;4442463;32;20078;-78
2022/01/04 09:18:48;;;;;;;3.20;1.25;;;20.10;54.20;;;;;;4442547;32;20215;-77
2022/01/04 09:21:19;;;;;;;5.47;1.00;;;20.30;54.00;;;;;;4444081;32;20168;-77
2022/01/04 09:23:47;;;;;;;4.53;0.80;;;20.40;53.70;;;;;;4443718;32;20067;-77
2022/01/04 09:26:15;;;;;;;3.22;0.98;;;20.50;53.40;;;;;;4444025;32;20128;-77
2022/01/04 09:28:42;;;;;;;3.97;1.10;;;20.60;53.10;;;;;;4443772;32;20196;-77
2022/01/04 09:31:09;;;;;;;2.42;0.85;;;20.70;52.80;;;;;;4443181;32;20082;-77
2022/01/04 09:33:35;;;;;;;2.72;0.90;;;20.80;52.70;;;;;;4446414;32;20143;-81
2022/01/04 09:36:01;;;;;;;4.10;0.77;;;20.90;52.50;;;;;;4446049;32;20136;-77
2022/01/04 09:38:27;;;;;;;4.25;1.08;;;21.00;52.40;;;;;;4447217;32;20066;-76
2022/01/04 09:40:54;;;;;;;2.97;0.95;;;21.00;52.30;;;;;;4446842;32;20078;-76
2022/01/04 09:43:20;;;;;;;3.83;0.73;;;21.10;52.20;;;;;;4447280;32;20081;-76
2022/01/04 09:45:47;;;;;;;2.25;0.80;;;21.10;52.20;;;;;;4446862;32;20070;-78
2022/01/04 09:48:13;;;;;;;2.72;1.10;;;21.20;52.10;;;;;;4446969;32;20086;-77
2022/01/04 09:50:41;;;;;;;2.55;0.80;;;21.20;52.00;;;;;;4437559;32;20094;-77
2022/01/04 09:53:09;;;;;;;2.60;1.00;;;21.30;52.00;;;;;;4443126;32;20168;-78
2022/01/04 09:55:42;;;;;;;2.38;0.80;;;21.30;51.80;;;;;;4431611;32;20596;-78
2022/01/04 09:58:10;;;;;;;2.70;0.68;;;21.40;51.70;;;;;;4456014;32;20105;-78
2022/01/04 10:00:36;;;;;;;2.10;0.70;;;21.40;51.60;;;;;;4431558;32;20082;-77
2022/01/04 10:03:15;;;;;;;3.28;0.80;;;21.40;51.60;;;;;;4431212;32;20183;-77
2022/01/04 10:05:41;;;;;;;2.72;0.63;;;21.50;51.60;;;;;;4431097;32;20078;-78
2022/01/04 10:08:08;;;;;;;9.18;1.00;;;21.50;51.50;;;;;;4430249;32;20425;-78
2022/01/04 10:10:35;;;;;;;4.80;0.95;;;21.50;51.40;;;;;;4431407;32;20090;-76
2022/01/04 10:13:05;;;;;;;6.53;0.88;;;21.50;51.40;;;;;;4430434;32;20164;-79
2022/01/04 10:15:50;;;;;;;4.15;0.80;;;21.50;51.50;;;;;;4431408;32;20070;-75
2022/01/04 10:18:20;;;;;;;15.05;1.20;;;21.50;51.60;;;;;;4430981;32;20093;-74
2022/01/04 10:20:53;;;;;;;4.97;1.00;;;21.60;51.60;;;;;;4430911;32;20104;-76
2022/01/04 10:23:22;;;;;;;2.30;0.88;;;21.60;51.60;;;;;;4431350;32;20094;-76
2022/01/04 10:25:49;;;;;;;2.38;0.73;;;21.70;51.60;;;;;;4430038;32;20085;-76
2022/01/04 10:28:33;;;;;;;3.30;0.73;;;21.70;51.50;;;;;;4432796;32;20168;-79
2022/01/04 10:31:03;;;;;;;3.53;0.75;;;21.70;51.50;;;;;;4432273;32;20232;-79
2022/01/04 10:33:31;;;;;;;2.13;0.90;;;21.70;51.40;;;;;;4430960;32;20089;-79
2022/01/04 10:35:59;;;;;;;5.53;0.90;;;21.80;51.40;;;;;;4454646;32;20089;-80
2022/01/04 10:38:32;;;;;;;3.63;1.10;;;21.80;51.10;;;;;;4430270;32;20118;-79
2022/01/04 10:41:09;;;;;;;2.87;0.90;;;21.80;50.70;;;;;;4430086;32;20159;-84
2022/01/04 10:43:45;;;;;;;1.77;0.43;;;21.80;50.40;;;;;;4429876;32;20655;-80
2022/01/04 10:46:14;;;;;;;2.17;0.77;;;21.70;50.00;;;;;;4454179;32;20126;-79
2022/01/04 10:48:43;;;;;;;3.15;1.02;;;21.70;49.90;;;;;;4429038;32;20085;-80
2022/01/04 10:51:10;;;;;;;2.60;1.23;;;21.60;49.70;;;;;;4441814;32;20093;-81
2022/01/04 10:53:44;;;;;;;4.57;1.17;;;21.60;49.70;;;;;;4431015;32;20067;-81
2022/01/04 10:56:12;;;;;;;2.92;1.20;;;21.50;49.60;;;;;;4430898;32;20086;-81
2022/01/04 10:58:40;;;;;;;5.13;1.20;;;21.40;49.80;;;;;;4430794;32;20089;-82
2022/01/04 11:01:11;;;;;;;2.53;1.10;;;21.30;49.90;;;;;;4434947;32;20089;-83
2022/01/04 11:03:42;;;;;;;4.95;1.10;;;21.30;50.20;;;;;;4443591;32;20078;-84
2022/01/04 11:06:14;;;;;;;4.20;1.30;;;21.20;50.30;;;;;;4462287;31;20170;-79
2022/01/04 11:08:42;;;;;;;3.85;1.15;;;21.10;50.60;;;;;;4437896;32;20090;-78
2022/01/04 11:11:08;;;;;;;2.95;1.30;;;21.10;50.80;;;;;;4428398;32;20187;-80
2022/01/04 11:13:34;;;;;;;2.67;1.00;;;21.10;50.90;;;;;;4439347;32;20405;-72
2022/01/04 11:16:01;;;;;;;2.83;0.98;;;21.00;51.00;;;;;;4427080;32;20090;-75
2022/01/04 11:18:28;;;;;;;4.60;1.10;;;21.10;51.20;;;;;;4433751;32;20097;-75
2022/01/04 11:20:55;;;;;;;4.05;1.20;;;21.10;51.20;;;;;;4429491;32;20078;-79
2022/01/04 11:23:29;;;;;;;2.83;0.90;;;21.10;51.30;;;;;;4441722;32;20098;-78
2022/01/04 11:25:56;;;;;;;2.35;1.00;;;21.10;51.40;;;;;;4444583;32;20216;-73
2022/01/04 11:28:23;;;;;;;3.33;0.82;;;21.10;51.40;;;;;;4444866;32;20416;-74
2022/01/04 11:31:02;;;;;;;2.40;1.00;;;21.20;51.60;;;;;;4441403;32;20186;-78
2022/01/04 11:33:32;;;;;;;4.40;0.90;;;21.20;51.60;;;;;;4443140;32;20523;-84
2022/01/04 11:35:59;;;;;;;2.50;1.00;;;21.20;51.60;;;;;;4443240;32;20188;-81
2022/01/04 11:38:37;;;;;;;2.58;0.90;;;21.20;51.60;;;;;;4429178;32;20635;-84
2022/01/04 11:41:04;;;;;;;3.10;0.77;;;21.20;51.60;;;;;;4442518;32;20104;-81
2022/01/04 11:43:35;;;;;;;2.55;0.60;;;21.20;51.50;;;;;;4445556;32;20073;-81
2022/01/04 11:46:03;;;;;;;5.45;0.75;;;21.10;51.70;;;;;;4443529;32;20149;-75
2022/01/04 11:48:41;;;;;;;6.97;0.90;;;21.10;50.50;;;;;;4445293;32;20088;-75
2022/01/04 11:51:34;;;;;;;3.05;0.80;;;21.00;50.00;;;;;;4444006;32;20216;-75
2022/01/04 11:54:26;;;;;;;5.70;0.70;;;20.90;50.00;;;;;;4434427;32;20082;-75
2022/01/04 11:57:09;;;;;;;17.05;0.80;;;20.80;50.10;;;;;;4441932;32;20133;-75
2022/01/04 11:59:43;;;;;;;3.05;0.90;;;20.80;50.40;;;;;;4442029;32;20078;-74
2022/01/04 12:02:33;;;;;;;4.05;0.60;;;20.70;50.60;;;;;;4435868;32;20153;-76
2022/01/04 12:05:00;;;;;;;3.67;1.02;;;20.60;51.00;;;;;;4437434;32;20092;-76
2022/01/04 12:07:38;;;;;;;6.15;0.73;;;20.60;51.30;;;;;;4442805;32;20180;-76
2022/01/04 12:10:27;;;;;;;5.35;0.70;;;20.50;51.60;;;;;;4442556;32;20212;-77
2022/01/04 12:13:11;;;;;;;4.07;0.70;;;20.50;51.80;;;;;;4437543;32;20558;-76
2022/01/04 12:15:37;;;;;;;1.65;0.52;;;20.40;52.10;;;;;;4442381;32;20101;-76
2022/01/04 12:18:08;;;;;;;1.63;0.55;;;20.40;52.30;;;;;;4442707;32;20121;-77
2022/01/04 12:20:43;;;;;;;3.13;0.70;;;20.30;52.60;;;;;;4444289;32;20216;-77
2022/01/04 12:26:19;;;;;;;3.88;0.90;;;20.20;52.90;;;;;;4443345;32;20208;-78
2022/01/04 12:29:05;;;;;;;1.25;0.50;;;20.20;53.10;;;;;;4429672;32;20062;-76
2022/01/04 12:31:45;;;;;;;2.60;0.70;;;20.10;53.60;;;;;;4441394;32;20074;-76
2022/01/04 12:34:32;;;;;;;3.20;0.60;;;20.10;53.40;;;;;;4443762;32;20228;-75
2022/01/04 12:36:58;;;;;;;4.35;0.40;;;20.00;53.50;;;;;;4443593;32;20078;-75
2022/01/04 12:39:37;;;;;;;2.35;0.68;;;20.00;53.60;;;;;;4444029;32;20627;-82
2022/01/04 12:42:03;;;;;;;3.50;0.40;;;20.00;53.70;;;;;;4442583;32;20117;-78
2022/01/04 12:44:29;;;;;;;5.30;0.90;;;19.90;53.70;;;;;;4443254;32;20094;-76
2022/01/04 12:46:56;;;;;;;4.05;0.75;;;19.90;53.90;;;;;;4442748;32;20844;-81
2022/01/04 12:49:25;;;;;;;3.92;0.80;;;19.80;54.00;;;;;;4443304;32;20541;-78
2022/01/04 12:51:54;;;;;;;2.25;0.68;;;19.80;54.00;;;;;;4443720;32;20153;-77
2022/01/04 12:54:25;;;;;;;1.45;0.70;;;19.80;54.20;;;;;;4443317;32;20105;-77
2022/01/04 12:56:52;;;;;;;3.00;0.50;;;19.70;54.10;;;;;;4443611;32;20504;-77
2022/01/04 12:59:33;;;;;;;2.30;0.77;;;19.70;54.20;;;;;;4443236;32;20543;-76
2022/01/04 13:02:02;;;;;;;3.15;1.00;;;19.70;54.10;;;;;;4439695;32;20088;-78